logo
App data

Phantom Soldier

Battle through 8 soul punching levels and defeat spirit summoning commanders. Complete missions to unlock new weapons and enhancements for your hero.
Store | Hub | SteamDB | Site
Developer: Virtual Top Publisher: VT Publishing
Genre: Action, Adventure, Indie
Languages: English
Tags: Action (37), Indie (28), Adventure (22), FPS (18), Violent (14), First-Person (13), Horror (13), Shooter (13), Singleplayer (12), Atmospheric (11), Shoot 'Em Up (10), Open World (10), Gore (10), Difficult (10), Dark (10), Survival Horror (10)
Category: Single-player, Steam Achievements, Steam Trading Cards
Release date: Mar 29, 2017
Price: $4.99
Old userscore: 42% Owners: 100,000 .. 200,000
Followers: 138
Peak concurrent players yesterday: 1

Steam Spy is still in beta, so expect major bugs.

Owners data:

Access restricted.

This feature is only available to users with special access rights. Sorry.

If you want to proceed, you need to register or log in first and then back Steam Spy on Patreon. Look for Indie or Pro pledge.

Don't forget to use the same email as on Steam Spy!

Audience in 2 weeks:

Access restricted.

This feature is only available to users with special access rights. Sorry.

If you want to proceed, you need to register or log in first and then back Steam Spy on Patreon. Look for Indie or Pro pledge.

Don't forget to use the same email as on Steam Spy!

Peak daily concurrent players:

CCU data courtesy of SteamDB. Used with permission.

Hourly concurrent players:

Followers over time

Access restricted.

This feature is only available to users with special access rights. Sorry.

If you want to proceed, you need to register or log in first and then back Steam Spy on Patreon. Look for Indie or Pro pledge.

Don't forget to use the same email as on Steam Spy!

Views for top 50 videos on YouTube for this game:

Games similar to this one:

# Game Release date
Price
Score rank
(Userscore / Metascore)
Owners
Players
Playtime (Median)
1 Hero Quest: Tower Conflict Apr 13, 2016 $0.49N/A (N/A)200,000 .. 500,0000%00:00 (00:00)
2 The Nest Jun 14, 2016 FreeN/A (N/A)0 .. 20,0000%00:00 (00:00)
3 CrazyCars3D Mar 28, 2016 $2.09N/A (N/A)50,000 .. 100,0000%00:00 (00:00)
4 Scanner Sombre Apr 26, 2017 $1.19N/A (N/A/67%)100,000 .. 200,0000%00:00 (00:00)
5 Mainlining Jan 26, 2017 $1.94N/A (N/A/73%)20,000 .. 50,0000%00:00 (00:00)
6 ORCS May 20, 2016 $0.49N/A (N/A)20,000 .. 50,0000%00:00 (00:00)
7 StarsOne Apr 8, 2016 $1.99N/A (N/A)20,000 .. 50,0000%00:00 (00:00)
8 Reflection of Mine Feb 24, 2017 $1.99N/A (N/A)0 .. 20,0000%00:00 (00:00)
9 OPUS: The Day We Found Earth Apr 21, 2016 $3.14N/A (N/A)100,000 .. 200,0000%00:00 (00:00)
10 Mindless Running Feb 22, 2016 $0.49N/A (N/A)20,000 .. 50,0000%00:00 (00:00)
11 Wrath of Anna Apr 2, 2018 $6.99N/A (N/A)50,000 .. 100,0000%00:00 (00:00)
12 Bunker Punks May 28, 2018 $2.99N/A (N/A)0 .. 20,0000%00:00 (00:00)
13 Moonstone Tavern - A Fantasy Tavern Sim! May 13, 2016 $2.71N/A (N/A)20,000 .. 50,0000%00:00 (00:00)
14 Amigdala Mar 28, 2016 $5.99N/A (N/A)20,000 .. 50,0000%00:00 (00:00)
15 NORTH Apr 27, 2016 $0.49N/A (N/A)200,000 .. 500,0000%00:00 (00:00)
16 Cube Land Arena Mar 8, 2019 $0.49N/A (N/A)50,000 .. 100,0000%00:00 (00:00)
17 New Retro Arcade: Neon Nov 19, 2019 $13.39N/A (N/A)0 .. 20,0000%00:00 (00:00)
18 Horizon Shift May 29, 2015 $0.99N/A (N/A)100,000 .. 200,0000%00:00 (00:00)
19 Four Sided Fantasy Aug 30, 2016 $0.99N/A (N/A)0 .. 20,0000%00:00 (00:00)
20 The Deer God Feb 27, 2015 $7.49N/A (N/A/59%)20,000 .. 50,0000%00:00 (00:00)
21 Bermuda Mar 17, 2015 $2.99N/A (N/A)50,000 .. 100,0000%00:00 (00:00)
22 Pix the Cat Jan 29, 2015 $1.49N/A (N/A/77%)50,000 .. 100,0000%00:00 (00:00)
23 Ukrainian Ninja Dec 23, 2014 FreeN/A (N/A)20,000 .. 50,0000%00:00 (00:00)
24 Phoenix Force Nov 13, 2014 $0.79N/A (N/A)50,000 .. 100,0000%00:00 (00:00)
25 TIMEframe Jul 7, 2015 $2.99N/A (N/A)50,000 .. 100,0000%00:00 (00:00)
26 Marvin's Mittens Dec 17, 2014 $5.99N/A (N/A)0 .. 20,0000%00:00 (00:00)
27 Squishy the Suicidal Pig Oct 23, 2014 $0.59N/A (N/A)200,000 .. 500,0000%00:00 (00:00)
28 A Druid's Duel Feb 25, 2015 $1.99N/A (N/A/70%)0 .. 20,0000%00:00 (00:00)
29 Chariot Nov 12, 2014 $1.49N/A (N/A/76%)50,000 .. 100,0000%00:00 (00:00)
30 Dwarf Tower May 5, 2014 $0.99N/A (N/A)20,000 .. 50,0000%00:00 (00:00)
31 Ninja Pizza Girl Sep 30, 2015 $1.74N/A (N/A/82%)50,000 .. 100,0000%00:00 (00:00)
32 Sky Mercenaries Dec 16, 2014 $9.99N/A (N/A)20,000 .. 50,0000%00:00 (00:00)
33 Disorder Jan 12, 2015 $3.99N/A (N/A/61%)20,000 .. 50,0000%00:00 (00:00)
34 Chronicles of a Dark Lord: Episode 1 Tides of Fate Complete Dec 19, 2014 N/AN/A (N/A)50,000 .. 100,0000%00:00 (00:00)
35 BIT.TRIP CORE Oct 2, 2012 $3.99N/A (N/A)20,000 .. 50,0000%00:00 (00:00)
36 Puddle Nov 9, 2012 $7.99N/A (N/A)50,000 .. 100,0000%00:00 (00:00)
37 BIT.TRIP VOID Dec 19, 2012 $3.99N/A (N/A)20,000 .. 50,0000%00:00 (00:00)
38 Papo & Yo Apr 18, 2013 $8.99N/A (N/A/70%)20,000 .. 50,0000%00:00 (00:00)
39 Tales From Space: Mutant Blobs Attack Aug 15, 2012 $2.49N/A (N/A/83%)100,000 .. 200,0000%00:00 (00:00)
40 Dream Jul 31, 2015 $1.79N/A (N/A/59%)50,000 .. 100,0000%00:00 (00:00)
41 All Zombies Must Die!: Scorepocalypse Apr 19, 2012 $4.99N/A (N/A)20,000 .. 50,0000%00:00 (00:00)
42 Bad Hotel Oct 16, 2013 $4.99N/A (N/A)50,000 .. 100,0000%00:00 (00:00)
43 Sugar Cube: Bittersweet Factory Nov 7, 2012 $1.74N/A (N/A)20,000 .. 50,0000%00:00 (00:00)
44 BIT.TRIP BEAT Nov 2, 2010 $3.99N/A (N/A)200,000 .. 500,0000%00:00 (00:00)
45 Party of Sin Dec 13, 2012 $2.99N/A (N/A)50,000 .. 100,0000%00:00 (00:00)
46 Super Splatters Jun 26, 2013 N/AN/A (N/A/73%)50,000 .. 100,0000%00:00 (00:00)
47 Home Jun 1, 2012 $0.99N/A (N/A/69%)200,000 .. 500,0000%00:00 (00:00)
48 SOL: Exodus Jan 25, 2012 $7.99N/A (N/A/57%)50,000 .. 100,0000%00:00 (00:00)
49 Ultratron Mar 18, 2013 $4.99N/A (N/A)50,000 .. 100,0000%00:00 (00:00)
50 Titan Attacks! Feb 3, 2012 $4.99N/A (N/A)50,000 .. 100,0000%00:00 (00:00)
51 Cargo Commander Nov 1, 2012 $0.5N/A (N/A)100,000 .. 200,0000%00:00 (00:00)
52 DashBored Jun 13, 2016 $1.74N/A (N/A)20,000 .. 50,0000%00:00 (00:00)
53 The Gleam: VR Escape the Room Oct 14, 2016 $3.99N/A (N/A)100,000 .. 200,0000%00:00 (00:00)
54 Bohemian Killing Jul 21, 2016 $12.99N/A (N/A/55%)0 .. 20,0000%00:00 (00:00)
55 mr.President Prologue Episode Sep 20, 2016 $0.49N/A (N/A)20,000 .. 50,0000%00:00 (00:00)
56 You Deserve Aug 19, 2016 $0.49N/A (N/A)20,000 .. 50,0000%00:00 (00:00)
57 Pixel Gladiator Sep 8, 2017 $0.49N/A (N/A)20,000 .. 50,0000%00:00 (00:00)
58 Dinosaur Forest May 17, 2017 $0.49N/A (N/A)50,000 .. 100,0000%00:00 (00:00)
59 Snake Pass Mar 28, 2017 $5.99N/A (N/A/71%)200,000 .. 500,0006.38%03:58 (01:59)
60 Showdown Adventure Sep 21, 2016 $2.99N/A (N/A)0 .. 20,0000%00:00 (00:00)
61 Star Drifter Jun 1, 2016 $0.49N/A (N/A)200,000 .. 500,0000%00:00 (00:00)
62 Joana's Life Sep 1, 2016 $2.99N/A (N/A)50,000 .. 100,0000%00:00 (00:00)
63 Call Of The Mighty Warriors Mar 1, 2019 $0.49N/A (N/A)20,000 .. 50,0000%00:00 (00:00)
64 Pinkman Jan 16, 2017 $0.74N/A (N/A)0 .. 20,0000%00:00 (00:00)
65 Karma Miwa Aug 12, 2016 $0.99N/A (N/A)20,000 .. 50,0000%00:00 (00:00)
66 It Comes Around - A Kinetic Novel Sep 29, 2016 $2.99N/A (N/A)20,000 .. 50,0000%00:00 (00:00)
67 Super Duper Party Pooper Jun 6, 2016 $0.49N/A (N/A/40%)100,000 .. 200,0000%00:00 (00:00)
68 Starship Annihilator Sep 2, 2016 $0.49N/A (N/A)50,000 .. 100,0000%00:00 (00:00)
69 It came from space and ate our brains Mar 19, 2015 $11.24N/A (N/A)200,000 .. 500,0000%00:00 (00:00)
70 Centauri Sector Jun 23, 2015 $4.99N/A (N/A)20,000 .. 50,0000%00:00 (00:00)
71 Disillusions Manga Horror Apr 6, 2013 $0.99N/A (N/A)20,000 .. 50,0000%00:00 (00:00)
72 Beyond Eyes Aug 11, 2015 $2.99N/A (N/A/60%)100,000 .. 200,0000%00:00 (00:00)
73 Three Fourths Home: Extended Edition Mar 20, 2015 $1.49N/A (N/A/77%)20,000 .. 50,0000%00:00 (00:00)
74 Orbit HD Mar 18, 2015 $0.99N/A (N/A)20,000 .. 50,0000%00:00 (00:00)
75 Rats - Time is running out! Aug 19, 2015 $4.99N/A (N/A)20,000 .. 50,0000%00:00 (00:00)
76 Soccer Rage Jun 2, 2015 $9.99N/A (N/A)20,000 .. 50,0000%00:00 (00:00)
77 Starship Traveller Mar 11, 2015 $1.49N/A (N/A)0 .. 20,0000%00:00 (00:00)
78 Tomb of Tyrants Jun 25, 2015 $2.71N/A (N/A)20,000 .. 50,0000%00:00 (00:00)
79 Porcunipine May 21, 2015 $0.99N/A (N/A)20,000 .. 50,0000%00:00 (00:00)
80 On A Roll 3D Feb 12, 2015 $1.99N/A (N/A)50,000 .. 100,0000%00:00 (00:00)
81 Star Horizon May 28, 2015 $9.99N/A (N/A)0 .. 20,0000%00:00 (00:00)
82 Glorkian Warrior: The Trials Of Glork Mar 24, 2015 $1.35N/A (N/A)20,000 .. 50,0000%00:00 (00:00)
83 NEO AQUARIUM - The King of Crustaceans - Jun 8, 2015 $1.79N/A (N/A)20,000 .. 50,0000%00:00 (00:00)
84 Countless Rooms of Death Feb 20, 2014 $0.99N/A (N/A)20,000 .. 50,0000%00:00 (00:00)
85 Reign of Bullets Aug 19, 2015 $9.99N/A (N/A)0 .. 20,0000%00:00 (00:00)
86 Child Phobia: Nightcoming Fears Dec 20, 2016 $1.99N/A (N/A)20,000 .. 50,0000%00:00 (00:00)
87 GORN Jul 18, 2019 $9.99N/A (N/A/85%)200,000 .. 500,0007.14%01:10 (00:23)
88 Monolith Jun 7, 2017 $3.99N/A (N/A/83%)50,000 .. 100,00020%00:11 (00:03)
89 Guns of Icarus Alliance Mar 31, 2017 $0.74N/A (N/A)50,000 .. 100,0000%00:00 (00:00)
90 The Archotek Project Apr 28, 2017 $0.99N/A (N/A)200,000 .. 500,0000%00:00 (00:00)
91 Zolg Dec 2, 2016 $0.49N/A (N/A)20,000 .. 50,0000%00:00 (00:00)
92 Witch It May 31, 2017 $7.49N/A (N/A)200,000 .. 500,0006.12%02:00 (01:59)
93 Introvert Quest Mar 15, 2017 $0.49N/A (N/A)100,000 .. 200,0000%00:00 (00:00)
94 Distant Space Dec 20, 2016 $0.49N/A (N/A)50,000 .. 100,0000%00:00 (00:00)
95 Hare In The Hat Apr 1, 2015 $1.19N/A (N/A)50,000 .. 100,0000%00:00 (00:00)
96 Football, Tactics & Glory Jun 1, 2018 $14.99N/A (N/A)100,000 .. 200,0000%00:00 (00:00)
97 Spellsworn Mar 13, 2018 FreeN/A (N/A)100,000 .. 200,0004.76%00:12 (00:04)
98 The Adventures of Mr. Bobley Jul 1, 2015 $0.99N/A (N/A)50,000 .. 100,0000%00:00 (00:00)
99 Luna Sky Oct 2, 2015 $12.99N/A (N/A)50,000 .. 100,0000%00:00 (00:00)
100 Monument Jun 5, 2015 $0.71N/A (N/A)100,000 .. 200,0000%00:00 (00:00)
101 Interstellar Rift Jun 23, 2015 $12.72N/A (N/A)50,000 .. 100,0000%00:00 (00:00)
102 Western Press Apr 21, 2016 $0.99N/A (N/A)20,000 .. 50,0000%00:00 (00:00)
103 Transcendence Jul 24, 2015 $1.79N/A (N/A)0 .. 20,0000%00:00 (00:00)
104 Big Action Mega Fight! Jan 12, 2016 $0.99N/A (N/A)20,000 .. 50,0000%00:00 (00:00)
105 Pixel Star May 22, 2015 $1.49N/A (N/A)20,000 .. 50,0000%00:00 (00:00)
106 Inside My Radio May 11, 2015 $2.99N/A (N/A/68%)20,000 .. 50,0000%00:00 (00:00)
107 Polyball Dec 1, 2017 $1.49N/A (N/A)100,000 .. 200,0001.39%00:26 (00:17)
108 Gryphon Knight Epic Aug 20, 2015 $6.99N/A (N/A/55%)20,000 .. 50,0000%00:00 (00:00)
109 Treeker: The Lost Glasses Remake May 13, 2015 $0.83N/A (N/A)20,000 .. 50,0000%00:00 (00:00)
110 Canabalt Apr 30, 2015 $1.19N/A (N/A)20,000 .. 50,0000%00:00 (00:00)
111 Pizza Express Jun 25, 2015 $0.69N/A (N/A)20,000 .. 50,0000%00:00 (00:00)
112 Escape Goat 2 Mar 24, 2014 $3.99N/A (N/A/76%)50,000 .. 100,0000%00:00 (00:00)
113 Poöf Nov 8, 2013 $6.99N/A (N/A)20,000 .. 50,0000%00:00 (00:00)
114 Survivor Squad Nov 8, 2013 $0.59N/A (N/A)100,000 .. 200,0000%00:00 (00:00)
115 The Novelist Dec 10, 2013 $0.99N/A (N/A/66%)100,000 .. 200,0000%00:00 (00:00)
116 Montague's Mount Nov 19, 2013 $4.99N/A (N/A/39%)20,000 .. 50,0000%00:00 (00:00)
117 Knytt Underground Oct 25, 2013 $1.39N/A (N/A)50,000 .. 100,0000%00:00 (00:00)
118 Ballpoint Universe - Infinite Dec 17, 2013 $3.99N/A (N/A)50,000 .. 100,0000%00:00 (00:00)
119 Escape Goat Jun 14, 2012 $1.99N/A (N/A)20,000 .. 50,0000%00:00 (00:00)
120 Godus $14.99N/A (N/A)50,000 .. 100,0000%00:00 (00:00)
121 Solar Flux Oct 24, 2013 $9.99N/A (N/A)100,000 .. 200,0000%00:00 (00:00)
122 Wake $4.99N/A (N/A)0 .. 20,0000%00:00 (00:00)
123 Maia Nov 23, 2018 $3.74N/A (N/A)50,000 .. 100,0000%00:00 (00:00)
124 Zack Zero Apr 29, 2013 $2.99N/A (N/A)50,000 .. 100,0000%00:00 (00:00)
125 FOTONICA Nov 6, 2014 $1.49N/A (N/A/71%)50,000 .. 100,0000%00:00 (00:00)
126 Intake Nov 5, 2013 $9.99N/A (N/A)20,000 .. 50,0000%00:00 (00:00)
127 Gentlemen! Nov 5, 2013 $1.24N/A (N/A)20,000 .. 50,0000%00:00 (00:00)
128 Super Puzzle Platformer Deluxe May 24, 2013 $0.79N/A (N/A)20,000 .. 50,0000%00:00 (00:00)
129 Aviary Attorney Dec 21, 2015 $14.99N/A (N/A/77%)50,000 .. 100,0000%00:00 (00:00)
130 Wild Island Quest Sep 4, 2015 $0.49N/A (N/A)50,000 .. 100,0000%00:00 (00:00)
131 none Nov 4, 2015 N/AN/A (N/A)20,000 .. 50,0000%00:00 (00:00)
132 Dragon's Wake Dec 10, 2015 $3.99N/A (N/A)0 .. 20,0000%00:00 (00:00)
133 A.I. Invasion Sep 30, 2015 $2.99N/A (N/A)0 .. 20,0000%00:00 (00:00)
134 Kitchen Simulator 2015 Sep 2, 2015 $0.49N/A (N/A)20,000 .. 50,0000%00:00 (00:00)
135 Earth Overclocked Dec 4, 2015 $0.99N/A (N/A)20,000 .. 50,0000%00:00 (00:00)
136 Press X to Not Die Oct 6, 2017 $0.74N/A (N/A)50,000 .. 100,0000%00:00 (00:00)
137 iZBOT Sep 1, 2015 $11.99N/A (N/A)20,000 .. 50,0000%00:00 (00:00)
138 Sky Rogue Aug 24, 2017 $9.99N/A (N/A)20,000 .. 50,0000%00:00 (00:00)
139 Redemption: Eternal Quest Aug 28, 2015 $0.79N/A (N/A)100,000 .. 200,0000%00:00 (00:00)
140 Action Alien Jun 26, 2015 $3.59N/A (N/A)50,000 .. 100,0000%00:00 (00:00)
141 The Musketeers: Victoria's Quest Aug 20, 2015 $0.51N/A (N/A)0 .. 20,0000%00:00 (00:00)
142 8Bit Fiesta - Party Game Sep 30, 2016 FreeN/A (N/A)0 .. 20,00050%00:55 (00:27)
143 Void Invaders Aug 14, 2015 $0.5N/A (N/A)20,000 .. 50,0000%00:00 (00:00)
144 Dead In Bermuda Aug 27, 2015 $3.74N/A (N/A)20,000 .. 50,0000%00:00 (00:00)
145 Blaster Shooter GunGuy! Aug 10, 2015 $0.49N/A (N/A)50,000 .. 100,0000%00:00 (00:00)
146 ReignMaker Apr 16, 2014 $14.99N/A (N/A)50,000 .. 100,0000%00:00 (00:00)
147 10 Second Ninja Mar 5, 2014 $0.99N/A (N/A/72%)50,000 .. 100,0000%00:00 (00:00)
148 Autocraft Sep 20, 2017 $2.49N/A (N/A)20,000 .. 50,0000%00:00 (00:00)
149 Labyrinthine Dreams May 26, 2015 $0.49N/A (N/A)20,000 .. 50,0000%00:00 (00:00)
150 Volt Apr 14, 2014 $0.99N/A (N/A)50,000 .. 100,0000%00:00 (00:00)
151 Pulstar Jun 11, 2014 $0.67N/A (N/A)20,000 .. 50,0000%00:00 (00:00)
152 Vitrum Sep 25, 2012 $1.99N/A (N/A)0 .. 20,0000%00:00 (00:00)
153 T.E.C. 3001 Apr 10, 2014 N/AN/A (N/A)20,000 .. 50,0000%00:00 (00:00)
154 Journal Feb 17, 2014 $1.99N/A (N/A/59%)20,000 .. 50,0000%00:00 (00:00)
155 Munin Jun 10, 2014 $0.49N/A (N/A/68%)100,000 .. 200,0000%00:00 (00:00)
156 STARWHAL Sep 29, 2014 $11.99N/A (N/A)50,000 .. 100,0000%00:00 (00:00)
157 Warring States Jan 29, 2018 $18.99N/A (N/A)0 .. 20,0000%00:00 (00:00)
158 Imagine Me Mar 14, 2014 $2.99N/A (N/A)20,000 .. 50,0000%00:00 (00:00)
159 Rabbit Hole 3D: Steam Edition Apr 25, 2014 $1.01N/A (N/A)50,000 .. 100,0000%00:00 (00:00)
160 Montas Mar 24, 2014 $9.99N/A (N/A)0 .. 20,0000%00:00 (00:00)
161 Kromaia Oct 23, 2014 $19.99N/A (N/A/68%)20,000 .. 50,0000%00:00 (00:00)
162 Jones On Fire Mar 14, 2013 $1.49N/A (N/A)50,000 .. 100,0000%00:00 (00:00)
163 The Purring Quest Nov 12, 2015 $1.09N/A (N/A)50,000 .. 100,0000%00:00 (00:00)
164 Rencounter Nov 4, 2016 $0.59N/A (N/A)20,000 .. 50,0000%00:00 (00:00)
165 Morphine Oct 28, 2015 $0.74N/A (N/A)20,000 .. 50,0000%00:00 (00:00)
166 Evertown Jan 30, 2020 $1.99N/A (N/A)0 .. 20,0000%00:00 (00:00)
167 Heavy Gear Assault Feb 10, 2017 $39.99N/A (N/A)20,000 .. 50,0000%00:00 (00:00)
168 10 Second Ninja X Jul 19, 2016 $0.99N/A (N/A)200,000 .. 500,0000%00:00 (00:00)
169 Godus Wars Feb 3, 2016 $14.99N/A (N/A)50,000 .. 100,0000%00:00 (00:00)
170 Empire of the Gods May 13, 2008 $0.99N/A (N/A)20,000 .. 50,0000%00:00 (00:00)
171 Bell Ringer Mar 6, 2016 $6.99N/A (N/A)200,000 .. 500,0000%00:00 (00:00)
172 1,000 Heads Among the Trees Dec 11, 2015 $0.99N/A (N/A)100,000 .. 200,0000%00:00 (00:00)
173 PERFECT ANGLE: The puzzle game based on optical illusions Dec 22, 2015 $2.49N/A (N/A)50,000 .. 100,0000%00:00 (00:00)
174 Dream Factory Nov 2, 2015 $9.99N/A (N/A)20,000 .. 50,0000%00:00 (00:00)
175 TurnOn Jun 1, 2016 $14.99N/A (N/A/67%)20,000 .. 50,0000%00:00 (00:00)
176 Timber and Stone Oct 20, 2015 $4.99N/A (N/A)20,000 .. 50,0000%00:00 (00:00)
177 Tiny Guardians Mar 24, 2016 $9.99N/A (N/A)0 .. 20,0000%00:00 (00:00)
178 Fist Slash: Of Ultimate Fury Dec 10, 2015 $0.79N/A (N/A)0 .. 20,0000%00:00 (00:00)
179 Doodle Kingdom Jun 9, 2016 $2.6N/A (N/A)20,000 .. 50,0000%00:00 (00:00)
180 OTTTD Aug 6, 2014 $0.79N/A (N/A)50,000 .. 100,0000%00:00 (00:00)
181 Dreaming Sarah Mar 12, 2015 $0.59N/A (N/A)100,000 .. 200,0000%00:00 (00:00)
182 The Masterplan Jun 4, 2015 $19.99N/A (N/A/68%)100,000 .. 200,0000%00:00 (00:00)
183 Frederic: Evil Strikes Back May 23, 2014 $0.79N/A (N/A)50,000 .. 100,0000%00:00 (00:00)
184 A City Sleeps Oct 16, 2014 $0.99N/A (N/A)20,000 .. 50,0000%00:00 (00:00)
185 Rhythm Destruction Jun 16, 2014 $4.99N/A (N/A)50,000 .. 100,0000%00:00 (00:00)
186 Supreme: Pizza Empire Jan 9, 2015 $0.99N/A (N/A)0 .. 20,0000%00:00 (00:00)
187 Boson X Sep 15, 2014 $0.98N/A (N/A)50,000 .. 100,0000%00:00 (00:00)
188 Three Dead Zed Jul 7, 2014 $5.99N/A (N/A)50,000 .. 100,00014.29%03:08 (01:02)
189 Iron Fisticle Sep 16, 2014 $0.89N/A (N/A)20,000 .. 50,0000%00:00 (00:00)
190 Starship Corporation May 3, 2018 $4.99N/A (N/A)50,000 .. 100,0000%00:00 (00:00)
191 Fancy Skulls Jun 16, 2014 $8.99N/A (N/A)20,000 .. 50,0000%00:00 (00:00)
192 Uriel's Chasm Sep 12, 2014 $0.74N/A (N/A)200,000 .. 500,0000%00:00 (00:00)
193 Back to Bed Aug 6, 2014 $1.19N/A (N/A)500,000 .. 1,000,0000%00:00 (00:00)
194 Stranded May 20, 2014 $0.49N/A (N/A)20,000 .. 50,0000%00:00 (00:00)
195 NEON STRUCT May 20, 2015 $1.79N/A (N/A/62%)20,000 .. 50,0000%00:00 (00:00)
196 TownCraft Feb 25, 2015 $9.99N/A (N/A)0 .. 20,0000%00:00 (00:00)

Tags over time:

Access restricted.

This feature is only available to users with special access rights. Sorry.

If you want to proceed, you need to register or log in first and then back Steam Spy on Patreon. Look for Indie or Pro pledge.

Don't forget to use the same email as on Steam Spy!

Owners of this game also own:

Access restricted.

This feature is only available to users with special access rights. Sorry.

If you want to proceed, you need to register or log in first and then back Steam Spy on Patreon. Look for Indie or Pro pledge.

Don't forget to use the same email as on Steam Spy!

Playtime distribution:

Access restricted.

This feature is only available to users with special access rights. Sorry.

If you want to proceed, you need to register or log in first and then back Steam Spy on Patreon. Look for Indie or Pro pledge.

Don't forget to use the same email as on Steam Spy!

Playtime (2 weeks):

Access restricted.

This feature is only available to users with special access rights. Sorry.

If you want to proceed, you need to register or log in first and then back Steam Spy on Patreon. Look for Indie or Pro pledge.

Don't forget to use the same email as on Steam Spy!

User reviews:

Login required.

Please register or log in to see this information.